Terminal Aerodrome Forecast
Issued by NWS

Home | Current Version | Previous Version | Text Only | Print | Product List | Glossary On
Versions: 1 2 3 4 5 6 7 8 9 10 11 12 13 14 15 16 17 18
000
FTUS42 KTAE 302118 AAA
TAFVLD
TAF AMD
KVLD 302118Z 3021/3118 19005KT P6SM VCTS BKN040CB
      TEMPO 3021/3024 VRB15G25KT 1SM +TSRA
     FM310200 00000KT P6SM BKN250=

USA.gov is the U.S. government's official web portal to all federal, state and local government web resources and services.